Flight Track Log - Related Links

Times and Time Zones

All times are in EDT time to prevent confusion due to time zone crossing. See the GJS3649 flight status page for this flight to view local times or setup timezone preferences in your user account.

Time Position Orientation Groundspeed Altitude Reporting Facility
EDT Latitude Longitude Course Direction KTS MPH feet Rate Location/Type
06:05PM 38.9333 -77.5500 243° Southwest 209 241 3,200  Level Potomac TRACON
06:06PM 38.9000 -77.6333 243° Southwest 243 280 5,500 2,466 Climbing Potomac TRACON
06:08PM 38.8978 -77.7708 269° West 275 316 9,200 2,245 Climbing Washington Center
06:09PM 38.9108 -77.8619 280° West 280 322 11,000 1,800 Climbing Washington Center
06:10PM 38.9269 -77.9906 279° West 304 350 12,800 1,750 Climbing Washington Center
06:11PM 38.9453 -78.1164 281° West 338 389 14,500 1,525 Climbing Washington Center
06:12PM 38.9592 -78.2450 278° West 357 411 15,900 1,339 Climbing Washington Center
06:13PM 38.9644 -78.3761 273° West 370 426 17,200 1,373 Climbing Washington Center
06:14PM 38.9697 -78.5153 273° West 381 438 18,600 1,576 Climbing Washington Center
06:15PM 38.9744 -78.6542 273° West 386 444 20,300 1,636 Climbing Washington Center
06:16PM 38.9772 -78.7933 272° West 386 444 21,900 1,475 Climbing Washington Center
06:17PM 38.9817 -78.9322 272° West 386 444 23,300 1,373 Climbing Washington Center
06:18PM 38.9861 -79.0714 272° West 386 444 24,600 1,160 Climbing Washington Center
06:19PM 38.9881 -79.2156 271° West 396 456 25,600 934 Climbing Washington Center
06:20PM 38.9919 -79.3628 272° West 407 468 26,500 1,017 Climbing Washington Center
06:21PM 38.9933 -79.5097 271° West 412 474 27,600 1,008 Climbing Washington Center
06:22PM 38.9992 -79.6517 273° West 431 496 28,500 885 Climbing Washington Center
06:23PM 39.0022 -79.8042 272° West 431 496 29,400 885 Climbing Washington Center
06:24PM 39.0067 -79.9728 272° West 431 496 30,300 908 Climbing Washington Center
06:25PM 39.0072 -80.1222 270° West 431 496 31,200 1,079 Climbing Washington Center
06:26PM 39.0075 -80.3192 270° West 424 488 32,800 1,091 Climbing Indianapolis Center
06:27PM 39.0111 -80.4689 272° West 421 484 33,800 919 Climbing Indianapolis Center
06:28PM 39.0111 -80.6164 270° West 417 480 34,700 774 Climbing Indianapolis Center
06:29PM 39.0144 -80.7650 272° West 417 480 35,400 629 Climbing Indianapolis Center
06:30PM 39.0542 -80.9106 289° West 436 502 36,000 290 Climbing Indianapolis Center
06:31PM 39.1247 -81.0792 298° West 447 514 36,000  Level Indianapolis Center
06:32PM 39.1833 -81.2211 298° West 451 519 36,000  Level Indianapolis Center
06:33PM 39.2411 -81.3614 298° West 447 514 36,000  Level Indianapolis Center
06:34PM 39.2983 -81.5019 298° West 446 513 36,000  Level Indianapolis Center
06:35PM 39.3544 -81.6422 297° West 443 510 36,000  Level Indianapolis Center
06:36PM 39.4117 -81.7825 298° West 443 510 36,000  Level Indianapolis Center
06:37PM 39.4794 -81.9514 298° West 443 510 36,000  Level Indianapolis Center
06:38PM 39.5350 -82.0914 297° West 440 506 36,000 97 Level Indianapolis Center
06:39PM 39.5900 -82.2311 297° West 444 511 36,200 484 Climbing Indianapolis Center
06:40PM 39.6456 -82.3722 297° West 438 504 37,000 387 Climbing Indianapolis Center
06:41PM 39.7022 -82.5142 297° West 440 506 37,000  Level Indianapolis Center
06:42PM 39.7681 -82.6828 297° West 445 512 37,000  Level Indianapolis Center
06:43PM 39.8256 -82.8286 297° West 451 519 37,000 97 Level Indianapolis Center
06:45PM 39.8825 -82.9758 297° West 453 521 37,200 484 Climbing Indianapolis Center
06:46PM 39.9392 -83.1194 297° West 447 514 38,000 387 Climbing Indianapolis Center
06:47PM 39.9961 -83.2619 298° West 443 510 38,000  Level Indianapolis Center
06:48PM 40.0922 -83.4097 310° West 461 531 38,000  Level Indianapolis Center
06:49PM 40.1758 -83.5350 311° West 459 528 38,000  Level Indianapolis Center
06:50PM 40.2594 -83.6600 311° West 456 525 38,000  Level Indianapolis Center
06:51PM 40.3425 -83.7853 311° West 453 521 38,000  Level Indianapolis Center
06:52PM 40.4256 -83.9108 311° West 453 521 38,000  Level Indianapolis Center
06:53PM 40.5094 -84.0361 311° West 451 519 38,000  Level Indianapolis Center
06:54PM 40.5914 -84.1619 311° West 450 518 38,000  Level Indianapolis Center
06:55PM 40.6872 -84.3094 311° West 453 521 38,000  Level Indianapolis Center
06:56PM 40.7694 -84.4361 311° West 452 520 38,000  Level Indianapolis Center
06:57PM 40.8683 -84.5858 311° West 460 529 38,000  Level Indianapolis Center
06:58PM 40.9211 -84.6675 311° West 458 527 38,000  Level Chicago Center
06:59PM 41.0042 -84.7975 310° West 461 531 38,000  Level Chicago Center
07:00PM 41.1039 -84.9533 310° West 463 533 38,000  Level Chicago Center
07:01PM 41.1875 -85.0839 310° West 464 534 38,000  Level Chicago Center
07:02PM 41.2708 -85.2161 310° West 467 537 38,000  Level Chicago Center
07:03PM 41.3539 -85.3503 310° West 467 537 38,000  Level Chicago Center
07:04PM 41.4400 -85.4886 310° West 475 547 38,000  Level Chicago Center
07:05PM 41.5264 -85.6289 309° West 479 551 38,000  Level Chicago Center
07:06PM 41.6131 -85.7664 310° West 482 555 38,000  Level Chicago Center
07:07PM 41.6986 -85.9033 310° West 481 554 38,000  Level Chicago Center
07:08PM 41.8008 -86.0689 310° West 481 554 38,000  Level Chicago Center
07:09PM 41.8867 -86.2069 310° West 483 556 38,000  Level Chicago Center
07:10PM 41.9717 -86.3456 310° West 482 555 38,000  Level Chicago Center
07:11PM 42.0547 -86.4839 309° West 475 547 38,000  Level Chicago Center
07:12PM 42.1383 -86.6231 309° West 478 550 38,000  Level Chicago Center
07:13PM 42.2403 -86.7875 310° West 477 549 38,000  Level Chicago Center
07:14PM 42.3211 -86.9250 309° West 475 547 38,000  Level Chicago Center
07:15PM 42.4019 -87.0608 309° West 466 536 38,000  Level Chicago Center
07:16PM 42.4814 -87.1933 309° West 460 529 38,000  Level Chicago Center
07:17PM 42.5614 -87.3281 309° West 463 533 38,000  Level Chicago Center
07:19PM 42.6461 -87.4703 309° West 462 532 38,000  Level Chicago Center
07:20PM 42.7375 -87.6300 308° West 459 528 38,000  Level Chicago Center
07:21PM 42.8161 -87.7650 308° West 456 525 38,000  Level Chicago Center
07:22PM 42.8939 -87.9008 308° West 453 521 38,000  Level Chicago Center
07:23PM 42.9714 -88.0367 308° West 454 522 38,000  Level Chicago Center
07:24PM 43.0497 -88.1722 308° West 454 522 38,000  Level Chicago Center
07:25PM 43.1419 -88.3303 309° West 456 525 38,000  Level Chicago Center
07:26PM 43.2211 -88.4664 309° West 452 520 38,000  Level Chicago Center
07:27PM 43.3031 -88.6078 309° West 462 532 38,000  Level Chicago Center
07:28PM 43.3861 -88.7486 309° West 465 535 38,000  Level Chicago Center
07:29PM 43.4678 -88.8878 309° West 463 533 38,000  Level Chicago Center
07:30PM 43.5492 -89.0281 309° West 465 535 38,000  Level Chicago Center
07:31PM 43.6289 -89.1675 308° West 463 533 38,000  Level Chicago Center
07:32PM 43.7094 -89.3089 308° West 466 536 38,000 -44 Level Chicago Center
07:33PM 43.8156 -89.4958 308° West 463 533 37,900 -484 Descending Minneapolis Center
07:34PM 43.8806 -89.6119 308° West 455 524 37,000 -1,221 Descending Chicago Center
07:35PM 43.9550 -89.7603 305° West 468 539 35,600 -1,306 Descending Chicago Center
07:36PM 44.0228 -89.9136 302° West 465 535 34,300 -774 Descending Chicago Center
07:37PM 44.0894 -90.0611 302° West 454 522 34,000 -145 Descending Chicago Center
07:38PM 44.1661 -90.2342 302° West 450 518 34,000  Level Chicago Center
07:39PM 44.2261 -90.3678 302° West 456 525 34,000 -194 Level Chicago Center
07:40PM 44.2917 -90.5164 302° West 457 526 33,600 -960 Descending Chicago Center
07:41PM 44.3708 -90.6964 302° West 459 528 32,000 -1,632 Descending Chicago Center
07:42PM 44.4361 -90.8458 301° West 458 527 30,200 -1,839 Descending Chicago Center
07:43PM 44.5008 -90.9944 301° West 455 524 28,200 -1,935 Descending Chicago Center
07:44PM 44.5647 -91.1422 301° West 450 518 26,200 -2,081 Descending Chicago Center
07:45PM 44.6389 -91.3150 301° West 440 506 23,900 -2,041 Descending Chicago Center
07:47PM 44.7200 -91.5058 301° West 426 490 21,200 -1,878 Descending Minneapolis Center
07:48PM 44.7758 -91.6403 300° West 414 476 19,300 -1,742 Descending Minneapolis Center
07:49PM 44.8325 -91.7703 302° West 403 464 17,600 -1,728 Descending Minneapolis Center
07:50PM 44.8881 -91.8975 302° West 386 444 15,700 -2,016 Descending Minneapolis Center
07:51PM 44.9489 -92.0458 300° West 367 422 13,400 -2,032 Descending Minneapolis Center
07:52PM 44.9994 -92.1656 301° West 356 410 11,500 -1,113 Descending Minneapolis Center
07:53PM 45.0450 -92.2828 299° West 344 396 11,100 -290 Descending Minneapolis Center
07:54PM 45.0292 -92.4150 260° West 342 394 10,900 -48 Descending Minneapolis Center
07:55PM 45.0092 -92.5453 258° West 342 394 11,000  Climbing Minneapolis Center
07:56PM 44.9842 -92.7011 257° West 341 392 10,900 -48 Descending Minneapolis Center
07:57PM 44.9625 -92.8314 257° West 343 395 10,900 -339 Level Minneapolis Center
07:58PM 44.9428 -92.9533 257° West 321 369 10,200 -1,113 Descending Minneapolis Center
07:59PM 44.9264 -93.0594 258° West 285 328 8,600 -1,200 Descending Minneapolis Center
08:00PM 44.9606 -93.1547 297° West 275 316 7,700 -1,248 Descending Minneapolis Center
08:01PM 45.0053 -93.2625 300° West 267 307 6,000 -1,403 Descending Minneapolis Center
08:02PM 45.0381 -93.3544 297° West 265 305 4,800 -1,161 Descending Minneapolis Center
08:03PM 44.9853 -93.4006 212° Southwest 262 302 3,600 -1,016 Descending Minneapolis Center
08:04PM 44.9422 -93.3372 134° Southeast 223 257 2,700 -871 Descending Minneapolis Center
08:05PM 44.9192 -93.2819 120° Southeast 154 177 1,800 -823 Descending Minneapolis Center
08:06PM 44.8961 -93.2261 120° Southeast 137 158 1,000 -774 Descending Minneapolis Center
08:08PM 44.8820 -93.2218 154° Southeast  Level Estimated
08:15PM 44.8820 -93.2218 154° Southeast  Level Estimated

Login

Don't have an account? Register now (free) for customized features, flight alerts, and more!